Time;durP1;ratioP1;P1;durP2;ratioP2;P2;SDS_P1;SDS_P2;PMS_P1;PMS_P2;Temp;Humidity;BMP_temperature;BMP_pressure;BME280_temperature;BME280_humidity;BME280_pressure;Samples;Min_cycle;Max_cycle;Signal;HPM_P1;HPM_P2
2022/12/10 00:00:24;;;;;;;5.13;4.28;;;23.20;40.00;;;;;;6104942;28;80839;-59
2022/12/10 00:03:24;;;;;;;5.82;4.75;;;23.10;40.00;;;;;;6103794;28;80626;-60
2022/12/10 00:06:25;;;;;;;5.82;4.88;;;23.20;39.90;;;;;;6098477;28;86877;-59
2022/12/10 00:09:25;;;;;;;4.80;4.18;;;23.10;39.90;;;;;;6106515;28;80260;-60
2022/12/10 00:12:26;;;;;;;5.80;4.30;;;23.10;40.00;;;;;;6106307;28;80238;-58
2022/12/10 00:15:26;;;;;;;6.13;4.35;;;23.10;39.80;;;;;;6106464;28;80413;-59
2022/12/10 00:18:27;;;;;;;4.88;4.32;;;23.10;39.90;;;;;;6105307;28;80320;-59
2022/12/10 00:21:27;;;;;;;6.40;4.97;;;23.10;39.60;;;;;;6106483;28;80439;-59
2022/12/10 00:24:28;;;;;;;8.63;5.20;;;23.10;39.80;;;;;;6105194;28;80453;-59
2022/12/10 00:27:28;;;;;;;6.05;4.95;;;23.10;39.70;;;;;;6105887;28;80371;-59
2022/12/10 00:30:29;;;;;;;6.20;5.30;;;23.10;39.70;;;;;;6079157;28;83124;-59
2022/12/10 00:33:29;;;;;;;7.05;4.90;;;23.10;39.50;;;;;;6089705;28;80967;-48
2022/12/10 00:36:30;;;;;;;5.55;4.45;;;23.00;39.50;;;;;;6081876;28;80468;-50
2022/12/10 00:39:32;;;;;;;5.68;4.88;;;23.10;39.60;;;;;;6062007;28;80984;-52
2022/12/10 00:42:32;;;;;;;6.32;4.63;;;23.10;39.60;;;;;;6082039;28;83534;-51
2022/12/10 00:45:33;;;;;;;5.75;4.50;;;23.10;39.60;;;;;;6095551;28;82792;-62
2022/12/10 00:48:33;;;;;;;5.05;4.22;;;23.00;39.50;;;;;;6082697;28;80831;-64
2022/12/10 00:51:34;;;;;;;4.97;4.15;;;23.00;39.50;;;;;;6081813;28;81267;-64
2022/12/10 00:54:34;;;;;;;5.97;4.20;;;23.00;39.50;;;;;;6081809;28;81208;-63
2022/12/10 00:57:35;;;;;;;5.22;4.20;;;23.00;39.60;;;;;;6098097;28;83004;-61
2022/12/10 01:00:36;;;;;;;4.43;3.75;;;23.00;39.60;;;;;;6081770;28;80511;-65
2022/12/10 01:03:36;;;;;;;7.00;4.65;;;23.00;39.50;;;;;;6079881;28;82189;-64
2022/12/10 01:06:36;;;;;;;5.38;4.38;;;23.00;39.70;;;;;;6074072;28;82226;-63
2022/12/10 01:09:37;;;;;;;5.38;3.97;;;23.00;39.70;;;;;;6095250;28;83636;-62
2022/12/10 01:12:38;;;;;;;4.90;3.97;;;23.00;39.70;;;;;;6081512;28;80722;-62
2022/12/10 01:15:39;;;;;;;5.65;4.32;;;23.00;39.70;;;;;;6081447;28;81501;-63
2022/12/10 01:18:39;;;;;;;4.80;3.97;;;23.00;39.80;;;;;;6078449;28;82261;-64
2022/12/10 01:21:40;;;;;;;4.60;3.65;;;23.00;40.50;;;;;;6079989;28;82265;-65
2022/12/10 01:24:42;;;;;;;3.97;3.25;;;23.00;41.00;;;;;;6074453;28;80795;-65
2022/12/10 01:27:42;;;;;;;5.22;4.30;;;23.00;41.30;;;;;;6082018;28;81642;-64
2022/12/10 01:30:43;;;;;;;4.85;3.60;;;23.00;41.10;;;;;;6056790;28;83508;-66
2022/12/10 01:33:43;;;;;;;7.15;3.58;;;23.00;41.40;;;;;;6055263;28;83527;-64
2022/12/10 01:36:44;;;;;;;5.05;3.97;;;23.00;41.60;;;;;;6056604;28;83368;-61
2022/12/10 01:39:45;;;;;;;5.90;4.00;;;23.00;41.50;;;;;;6055222;28;82067;-61
2022/12/10 01:42:46;;;;;;;5.50;3.70;;;23.00;41.50;;;;;;6055961;28;82075;-61
2022/12/10 01:45:48;;;;;;;6.68;3.85;;;23.00;41.40;;;;;;6070797;28;80802;-61
2022/12/10 01:48:49;;;;;;;4.57;3.55;;;23.00;41.40;;;;;;6056893;28;80658;-61
2022/12/10 01:51:49;;;;;;;3.95;3.53;;;23.00;41.30;;;;;;6056023;28;80482;-61
2022/12/10 01:54:50;;;;;;;4.28;3.70;;;23.00;41.30;;;;;;6055370;28;80993;-61
2022/12/10 01:57:50;;;;;;;6.85;3.97;;;23.00;41.30;;;;;;6055766;28;83342;-64
2022/12/10 02:00:51;;;;;;;5.25;3.97;;;23.00;41.20;;;;;;6071355;28;83421;-65
2022/12/10 02:03:52;;;;;;;5.63;3.40;;;23.00;41.30;;;;;;6056972;28;80444;-64
2022/12/10 02:06:53;;;;;;;3.83;3.17;;;23.00;41.20;;;;;;6046214;28;81045;-63
2022/12/10 02:09:53;;;;;;;4.25;3.60;;;23.00;41.20;;;;;;6056341;28;80563;-61
2022/12/10 02:12:54;;;;;;;3.90;3.20;;;23.00;41.30;;;;;;6055184;28;82440;-62
2022/12/10 02:15:54;;;;;;;4.95;3.70;;;23.00;41.30;;;;;;6054946;28;82991;-71
2022/12/10 02:18:55;;;;;;;4.00;3.25;;;23.00;41.40;;;;;;6057170;28;81006;-71
2022/12/10 02:21:55;;;;;;;4.45;3.38;;;23.00;41.40;;;;;;6070237;28;81775;-70
2022/12/10 02:24:58;;;;;;;4.78;2.95;;;23.00;41.40;;;;;;6074001;28;82996;-72
2022/12/10 02:27:58;;;;;;;3.95;3.30;;;23.00;41.50;;;;;;6056707;28;80956;-69
2022/12/10 02:31:01;;;;;;;5.32;3.67;;;23.00;41.40;;;;;;6052173;28;82472;-68
2022/12/10 02:34:02;;;;;;;3.95;3.17;;;23.00;41.40;;;;;;6072273;28;80501;-65
2022/12/10 02:37:03;;;;;;;3.47;3.00;;;23.00;41.50;;;;;;6070187;28;81513;-66
2022/12/10 02:40:03;;;;;;;3.72;3.22;;;23.00;41.50;;;;;;6050446;28;80720;-66
2022/12/10 02:43:08;;;;;;;3.83;3.13;;;23.00;41.10;;;;;;6046529;28;83465;-63
2022/12/10 02:46:10;;;;;;;4.35;3.00;;;23.00;41.40;;;;;;6053853;28;83313;-65
2022/12/10 02:49:11;;;;;;;3.28;2.97;;;23.00;41.00;;;;;;6041782;28;83449;-64
2022/12/10 02:52:11;;;;;;;3.50;3.20;;;23.00;40.90;;;;;;6055335;28;83174;-70
2022/12/10 02:55:15;;;;;;;4.57;3.22;;;23.00;41.00;;;;;;6054539;28;83166;-70
2022/12/10 02:58:19;;;;;;;3.35;3.05;;;23.00;40.60;;;;;;6053721;28;83070;-69
2022/12/10 03:01:21;;;;;;;5.38;3.17;;;23.00;40.60;;;;;;6055058;28;83538;-70
2022/12/10 03:04:21;;;;;;;4.63;3.20;;;23.00;40.30;;;;;;6060287;28;80751;-72
2022/12/10 03:07:22;;;;;;;3.28;2.75;;;22.90;40.20;;;;;;6074748;28;83178;-71
2022/12/10 03:10:22;;;;;;;4.03;3.20;;;22.90;40.30;;;;;;6063372;28;80021;-72
2022/12/10 03:13:23;;;;;;;3.45;2.72;;;22.90;40.20;;;;;;6059674;28;81307;-73
2022/12/10 03:16:23;;;;;;;3.88;2.80;;;22.90;40.80;;;;;;6059381;28;80277;-71
2022/12/10 03:19:24;;;;;;;3.97;3.03;;;22.90;40.10;;;;;;6059730;28;81105;-73
2022/12/10 03:22:24;;;;;;;4.30;3.15;;;22.90;40.10;;;;;;6060177;28;80978;-73
2022/12/10 03:25:25;;;;;;;4.45;3.00;;;22.90;40.00;;;;;;6059259;28;81395;-72
2022/12/10 03:28:25;;;;;;;4.47;2.97;;;22.90;39.90;;;;;;6052715;28;80520;-72
2022/12/10 03:31:26;;;;;;;4.35;3.30;;;22.90;39.80;;;;;;6060947;28;80697;-72
2022/12/10 03:34:26;;;;;;;5.95;3.50;;;22.90;39.90;;;;;;6060013;28;80542;-73
2022/12/10 03:37:27;;;;;;;4.10;2.92;;;22.90;39.80;;;;;;6061188;28;81446;-72
2022/12/10 03:40:27;;;;;;;4.05;3.08;;;22.90;39.70;;;;;;6059977;28;80083;-72
2022/12/10 03:43:28;;;;;;;3.55;3.03;;;22.90;39.80;;;;;;6059983;28;81113;-70
2022/12/10 03:46:28;;;;;;;3.60;2.95;;;22.90;39.70;;;;;;6062543;28;80639;-62
2022/12/10 03:49:29;;;;;;;2.88;2.60;;;22.90;39.70;;;;;;6058878;28;81176;-64
2022/12/10 03:52:29;;;;;;;2.97;2.67;;;22.90;39.70;;;;;;6059281;28;80490;-64
2022/12/10 03:55:30;;;;;;;3.53;3.00;;;22.90;39.60;;;;;;6058525;28;80320;-64
2022/12/10 03:58:30;;;;;;;3.13;2.83;;;22.90;39.60;;;;;;6059158;28;80429;-64
2022/12/10 04:01:31;;;;;;;3.10;2.60;;;22.90;39.50;;;;;;6059291;28;80232;-64
2022/12/10 04:04:31;;;;;;;5.63;3.35;;;22.90;39.60;;;;;;6056925;28;80682;-65
2022/12/10 04:07:32;;;;;;;3.30;2.70;;;22.90;39.50;;;;;;6062922;28;81077;-64
2022/12/10 04:10:32;;;;;;;3.90;3.05;;;22.90;39.50;;;;;;6058937;28;81221;-64
2022/12/10 04:16:52;;;;;;;3.22;2.78;;;22.90;39.50;;;;;;6061628;28;85822;-65
2022/12/10 04:19:53;;;;;;;2.90;2.60;;;22.90;39.70;;;;;;6058794;28;81086;-64
2022/12/10 04:29:32;;;;;;;3.08;2.78;;;23.00;39.30;;;;;;6082296;28;80484;-65
2022/12/10 04:32:32;;;;;;;4.20;2.92;;;23.10;39.00;;;;;;6081483;28;81582;-66
2022/12/10 04:35:33;;;;;;;4.65;3.20;;;23.10;38.90;;;;;;6080902;28;82495;-65
2022/12/10 04:38:33;;;;;;;3.10;2.60;;;23.10;39.00;;;;;;6081282;28;80404;-63
2022/12/10 04:41:34;;;;;;;2.90;2.60;;;23.20;39.00;;;;;;6085002;28;80543;-63
2022/12/10 04:44:34;;;;;;;3.85;2.88;;;23.30;39.30;;;;;;6081754;28;81402;-63
2022/12/10 04:47:35;;;;;;;3.20;2.90;;;23.30;39.40;;;;;;6079730;28;80363;-60
2022/12/10 04:50:35;;;;;;;5.32;2.75;;;23.40;39.60;;;;;;6075827;28;80805;-66
2022/12/10 04:53:36;;;;;;;5.97;3.13;;;23.40;39.50;;;;;;6089867;28;80529;-65
2022/12/10 04:56:36;;;;;;;4.53;2.88;;;23.40;39.40;;;;;;6081179;28;81173;-64
2022/12/10 04:59:37;;;;;;;3.90;2.70;;;23.40;39.30;;;;;;6080843;28;80129;-65
2022/12/10 05:02:37;;;;;;;3.65;3.17;;;23.40;39.20;;;;;;6081613;28;80529;-64
2022/12/10 05:05:38;;;;;;;4.50;2.80;;;23.50;39.40;;;;;;6075311;28;80382;-65
2022/12/10 05:08:38;;;;;;;4.55;2.83;;;23.50;39.50;;;;;;6081188;28;81405;-65
2022/12/10 05:11:39;;;;;;;4.10;3.05;;;23.50;39.70;;;;;;6079764;28;81399;-62
2022/12/10 05:14:39;;;;;;;7.03;3.22;;;23.50;39.80;;;;;;6079767;28;82485;-62
2022/12/10 05:17:40;;;;;;;4.55;2.95;;;23.50;39.90;;;;;;6081594;28;88497;-66
2022/12/10 05:20:40;;;;;;;3.38;2.70;;;23.50;40.10;;;;;;6073659;28;80461;-63
2022/12/10 05:23:41;;;;;;;3.08;2.78;;;23.60;40.00;;;;;;6085413;28;80685;-62
2022/12/10 05:26:41;;;;;;;3.20;2.70;;;23.60;39.70;;;;;;6080787;28;80290;-63
2022/12/10 05:29:42;;;;;;;4.32;3.00;;;23.60;39.80;;;;;;6081188;28;80723;-62
2022/12/10 05:32:43;;;;;;;3.38;2.88;;;23.60;39.70;;;;;;6081231;28;80035;-65
2022/12/10 05:35:43;;;;;;;3.67;2.80;;;23.60;39.70;;;;;;6081244;28;80923;-64
2022/12/10 05:38:44;;;;;;;5.47;3.10;;;23.60;39.60;;;;;;6081590;28;80527;-64
2022/12/10 05:41:45;;;;;;;3.25;2.95;;;23.60;39.50;;;;;;6080669;28;80588;-64
2022/12/10 05:44:46;;;;;;;3.85;3.28;;;23.60;39.40;;;;;;6081534;28;81048;-64
2022/12/10 05:47:46;;;;;;;4.20;3.20;;;23.50;39.40;;;;;;6081026;28;80537;-64
2022/12/10 05:50:47;;;;;;;4.00;2.95;;;23.60;39.30;;;;;;6081469;28;81264;-63
2022/12/10 05:53:47;;;;;;;5.97;3.20;;;23.60;39.30;;;;;;6080749;28;80558;-65
2022/12/10 05:56:48;;;;;;;4.75;3.72;;;23.50;39.10;;;;;;6080747;28;80562;-65
2022/12/10 05:59:48;;;;;;;3.90;3.15;;;23.50;39.10;;;;;;6080120;28;80667;-65
2022/12/10 06:02:49;;;;;;;6.13;4.57;;;23.50;39.10;;;;;;6078935;28;82256;-65
2022/12/10 06:05:49;;;;;;;5.55;4.03;;;23.50;39.00;;;;;;6072608;28;81246;-65
2022/12/10 06:08:50;;;;;;;5.43;3.58;;;23.50;39.00;;;;;;6080514;28;80532;-65
2022/12/10 06:11:50;;;;;;;7.10;3.92;;;23.50;39.00;;;;;;6080376;28;80555;-65
2022/12/10 06:14:51;;;;;;;6.70;3.85;;;23.50;39.00;;;;;;6080463;28;81029;-72
2022/12/10 06:17:51;;;;;;;6.20;4.18;;;23.50;39.00;;;;;;6080686;28;80755;-69
2022/12/10 06:20:52;;;;;;;7.47;3.80;;;23.50;38.90;;;;;;6082980;28;80602;-68
2022/12/10 06:23:52;;;;;;;5.85;3.85;;;23.50;39.00;;;;;;6081994;28;81053;-66
2022/12/10 06:26:53;;;;;;;7.78;4.18;;;23.50;39.00;;;;;;6068428;28;81223;-63
2022/12/10 06:29:53;;;;;;;4.90;3.88;;;23.40;39.30;;;;;;6090817;28;80571;-63
2022/12/10 06:32:54;;;;;;;10.85;3.67;;;23.40;39.30;;;;;;6078419;28;81376;-61
2022/12/10 06:35:54;;;;;;;8.70;3.80;;;23.40;39.80;;;;;;6079692;28;80578;-61
2022/12/10 06:38:55;;;;;;;5.57;3.92;;;23.40;39.50;;;;;;6076957;28;81449;-62
2022/12/10 06:41:55;;;;;;;6.70;3.97;;;23.30;39.40;;;;;;6060776;28;80743;-63
2022/12/10 06:44:56;;;;;;;5.90;4.00;;;23.40;39.80;;;;;;6041298;28;86176;-64
2022/12/10 06:47:56;;;;;;;8.85;3.72;;;23.30;40.00;;;;;;6062058;28;83901;-64
2022/12/10 06:50:57;;;;;;;6.90;3.55;;;23.30;40.20;;;;;;6056716;28;85423;-70
2022/12/10 06:53:57;;;;;;;6.43;3.88;;;23.30;40.30;;;;;;6061347;28;80659;-68
2022/12/10 06:56:58;;;;;;;4.10;3.10;;;23.30;40.50;;;;;;6062506;28;82962;-67
2022/12/10 06:59:58;;;;;;;5.93;3.65;;;23.30;40.60;;;;;;6057288;28;80482;-67
2022/12/10 07:02:59;;;;;;;5.55;3.83;;;23.30;40.70;;;;;;6058996;28;82082;-65
2022/12/10 07:05:59;;;;;;;5.55;3.80;;;23.30;40.80;;;;;;6048125;28;81044;-67
2022/12/10 07:09:00;;;;;;;11.23;5.22;;;23.20;41.00;;;;;;6057692;28;81531;-67
2022/12/10 07:12:00;;;;;;;5.72;4.10;;;23.30;41.20;;;;;;6059509;28;81234;-69
2022/12/10 07:15:01;;;;;;;7.70;4.07;;;23.20;41.10;;;;;;6064919;28;81057;-59
2022/12/10 07:18:01;;;;;;;9.95;4.50;;;23.30;41.30;;;;;;6075233;28;85506;-67
2022/12/10 07:21:02;;;;;;;8.80;4.45;;;23.20;41.40;;;;;;6069411;28;80928;-71
2022/12/10 07:24:02;;;;;;;10.88;4.78;;;23.30;41.50;;;;;;6059014;28;82177;-73
2022/12/10 07:27:03;;;;;;;9.63;4.13;;;23.20;41.60;;;;;;6076816;28;80942;-65
2022/12/10 07:30:03;;;;;;;7.93;4.63;;;23.20;41.50;;;;;;6066561;28;82239;-62
2022/12/10 07:33:04;;;;;;;13.85;4.78;;;23.20;41.30;;;;;;6050824;28;83109;-64
2022/12/10 07:36:04;;;;;;;6.82;4.68;;;23.20;41.10;;;;;;6064378;28;80372;-66
2022/12/10 07:39:05;;;;;;;7.82;4.40;;;23.20;41.10;;;;;;6064282;28;82976;-64
2022/12/10 07:42:05;;;;;;;8.35;4.35;;;23.20;40.90;;;;;;6066468;28;81600;-64
2022/12/10 07:45:09;;;;;;;9.40;4.25;;;23.20;40.70;;;;;;6053268;28;82710;-69
2022/12/10 07:48:10;;;;;;;8.85;4.50;;;23.20;40.70;;;;;;6035248;28;81074;-72
2022/12/10 07:51:10;;;;;;;6.93;4.95;;;23.10;40.60;;;;;;6052391;28;83989;-68
2022/12/10 07:54:11;;;;;;;9.30;4.72;;;23.20;40.60;;;;;;6068799;28;80428;-67
2022/12/10 07:57:11;;;;;;;7.32;4.38;;;23.20;40.70;;;;;;6044109;28;80475;-67
2022/12/10 08:00:12;;;;;;;7.18;4.32;;;23.20;40.70;;;;;;6059519;28;81380;-66
2022/12/10 08:03:12;;;;;;;6.78;4.40;;;23.20;40.90;;;;;;6057293;28;80853;-66
2022/12/10 08:06:13;;;;;;;9.07;4.53;;;23.20;40.90;;;;;;6046792;28;80479;-64
2022/12/10 08:09:14;;;;;;;9.18;4.25;;;23.20;40.70;;;;;;6049610;28;81094;-66
2022/12/10 08:12:14;;;;;;;8.60;4.32;;;23.10;40.40;;;;;;6069901;28;82503;-64
2022/12/10 08:15:15;;;;;;;6.00;4.30;;;23.10;40.80;;;;;;6057366;28;80198;-64
2022/12/10 08:18:15;;;;;;;7.63;4.00;;;23.10;40.40;;;;;;6055303;28;83208;-67
2022/12/10 08:21:16;;;;;;;7.82;4.72;;;23.10;40.30;;;;;;6051951;28;80630;-68
2022/12/10 08:24:17;;;;;;;8.10;3.85;;;23.10;40.30;;;;;;6056908;28;80416;-67
2022/12/10 08:27:18;;;;;;;4.78;3.60;;;23.10;40.30;;;;;;6033832;28;82477;-67
2022/12/10 08:30:18;;;;;;;5.03;3.72;;;23.10;40.60;;;;;;6037031;28;83664;-69
2022/12/10 08:33:19;;;;;;;5.28;3.97;;;23.10;40.40;;;;;;6063100;28;83512;-71
2022/12/10 08:36:19;;;;;;;6.07;4.25;;;23.10;40.20;;;;;;6045187;28;80923;-69
2022/12/10 08:39:20;;;;;;;5.30;3.70;;;23.10;40.60;;;;;;6034569;28;80580;-63
2022/12/10 08:42:20;;;;;;;5.50;3.70;;;23.10;40.70;;;;;;6046173;28;80064;-63
2022/12/10 08:45:21;;;;;;;6.60;4.40;;;23.10;40.90;;;;;;6040587;28;80483;-68
2022/12/10 08:48:23;;;;;;;7.25;3.75;;;23.10;41.10;;;;;;6051798;28;80711;-66
2022/12/10 08:51:24;;;;;;;5.20;3.40;;;23.10;41.20;;;;;;6053178;28;80516;-65
2022/12/10 08:54:24;;;;;;;6.05;3.90;;;23.10;41.20;;;;;;6041001;28;81593;-65
2022/12/10 08:57:25;;;;;;;5.45;3.70;;;23.10;41.10;;;;;;6050960;28;80416;-66
2022/12/10 09:00:25;;;;;;;9.38;3.70;;;23.10;41.30;;;;;;6037656;28;80409;-66
2022/12/10 09:03:26;;;;;;;12.45;3.92;;;23.10;41.40;;;;;;6046413;28;80639;-65
2022/12/10 09:06:27;;;;;;;9.32;3.83;;;23.10;41.70;;;;;;6036676;28;80875;-65
2022/12/10 09:09:27;;;;;;;6.45;3.45;;;23.10;41.60;;;;;;6047766;28;85696;-65
2022/12/10 09:12:28;;;;;;;13.13;4.30;;;23.10;41.50;;;;;;6036191;28;80515;-66
2022/12/10 09:15:28;;;;;;;7.85;3.85;;;23.10;41.60;;;;;;6042835;28;87955;-67
2022/12/10 09:18:29;;;;;;;10.30;4.85;;;23.10;41.60;;;;;;6043069;28;80788;-70
2022/12/10 09:21:30;;;;;;;4.88;3.85;;;23.10;41.20;;;;;;6047954;28;80618;-70
2022/12/10 09:24:30;;;;;;;8.45;3.78;;;23.10;41.70;;;;;;6053059;28;80529;-67
2022/12/10 09:27:31;;;;;;;6.82;4.20;;;23.10;41.30;;;;;;6043968;28;81166;-70
2022/12/10 09:30:31;;;;;;;7.15;4.10;;;23.20;42.20;;;;;;6033373;28;80518;-69
2022/12/10 09:33:32;;;;;;;11.20;4.13;;;23.20;42.30;;;;;;6043804;28;80671;-72
2022/12/10 09:36:32;;;;;;;14.07;4.63;;;23.20;42.10;;;;;;6041839;28;81521;-67
2022/12/10 09:39:33;;;;;;;10.82;5.07;;;23.20;42.60;;;;;;6049334;28;80651;-72
2022/12/10 09:42:33;;;;;;;12.20;5.35;;;23.20;43.60;;;;;;6049826;28;81029;-67
2022/12/10 09:45:34;;;;;;;7.15;5.07;;;23.30;44.30;;;;;;6045611;28;82374;-69
2022/12/10 09:48:34;;;;;;;7.63;5.20;;;23.30;44.20;;;;;;6051429;28;80568;-70
2022/12/10 09:51:35;;;;;;;10.27;5.60;;;23.30;44.10;;;;;;6040735;28;80444;-70
2022/12/10 09:54:35;;;;;;;13.95;5.30;;;23.40;44.80;;;;;;6031762;28;80387;-72
2022/12/10 09:57:36;;;;;;;12.00;5.65;;;23.40;45.20;;;;;;6035972;28;81794;-67
2022/12/10 10:00:37;;;;;;;10.07;5.95;;;23.40;46.40;;;;;;6032762;28;81167;-69
2022/12/10 10:03:37;;;;;;;13.25;5.90;;;23.40;45.40;;;;;;6043291;28;81643;-68
2022/12/10 10:06:38;;;;;;;9.45;5.93;;;23.40;45.40;;;;;;6040833;28;81458;-68
2022/12/10 10:09:38;;;;;;;13.13;6.07;;;23.40;45.60;;;;;;6051861;28;81790;-69
2022/12/10 10:12:39;;;;;;;24.13;7.38;;;23.50;45.60;;;;;;6063983;28;83824;-69
2022/12/10 10:15:39;;;;;;;14.25;6.22;;;23.50;46.60;;;;;;6036836;28;80368;-69
2022/12/10 10:18:40;;;;;;;11.80;6.30;;;23.50;46.20;;;;;;6031770;28;87114;-70
2022/12/10 10:21:40;;;;;;;11.80;6.30;;;23.50;46.20;;;;;;6031129;28;80382;-71
2022/12/10 10:24:41;;;;;;;10.43;7.43;;;23.50;46.60;;;;;;6046784;28;82644;-70
2022/12/10 10:27:41;;;;;;;15.32;8.65;;;23.50;46.00;;;;;;6052960;28;81039;-68
2022/12/10 10:30:42;;;;;;;15.77;9.32;;;23.50;46.40;;;;;;6034181;28;82913;-69
2022/12/10 10:33:42;;;;;;;16.10;8.93;;;23.50;46.10;;;;;;6040727;28;80660;-71
2022/12/10 10:36:43;;;;;;;17.42;10.05;;;23.50;45.80;;;;;;6052273;28;80737;-68
2022/12/10 10:39:43;;;;;;;18.40;10.02;;;23.50;46.50;;;;;;6052131;28;83334;-67
2022/12/10 10:42:44;;;;;;;23.48;11.40;;;23.50;46.90;;;;;;6057013;28;83626;-68
2022/12/10 10:45:44;;;;;;;25.02;12.05;;;23.50;46.50;;;;;;6057211;28;83013;-70
2022/12/10 10:48:45;;;;;;;20.38;10.95;;;23.60;46.80;;;;;;6052680;28;83349;-71
2022/12/10 10:51:45;;;;;;;17.40;11.15;;;23.60;47.30;;;;;;6057780;28;83312;-71
2022/12/10 10:54:46;;;;;;;22.52;11.15;;;23.60;46.80;;;;;;6033503;28;82952;-72
2022/12/10 10:57:46;;;;;;;24.52;11.25;;;23.60;46.60;;;;;;6043197;28;87993;-75
2022/12/10 11:00:47;;;;;;;26.75;10.93;;;23.60;46.70;;;;;;6034538;28;83756;-74
2022/12/10 11:03:47;;;;;;;24.25;9.98;;;23.60;46.70;;;;;;6044990;28;82975;-70
2022/12/10 11:06:48;;;;;;;27.48;10.05;;;23.50;46.60;;;;;;6033646;28;92166;-74
2022/12/10 11:09:48;;;;;;;19.77;9.02;;;23.50;46.60;;;;;;6033330;28;87735;-71
2022/12/10 11:12:49;;;;;;;17.38;8.75;;;23.60;46.50;;;;;;6034502;28;83224;-74
2022/12/10 11:15:49;;;;;;;22.30;9.52;;;23.60;46.70;;;;;;6034102;28;82345;-70
2022/12/10 11:18:50;;;;;;;14.82;8.73;;;23.60;47.40;;;;;;6051265;28;80155;-74
2022/12/10 11:21:51;;;;;;;22.27;9.98;;;23.60;46.60;;;;;;6038149;28;83074;-71
2022/12/10 11:24:51;;;;;;;20.25;9.32;;;23.50;46.50;;;;;;6037483;28;88382;-75
2022/12/10 11:27:53;;;;;;;16.75;8.55;;;23.50;47.20;;;;;;6057264;28;83173;-75
2022/12/10 11:30:53;;;;;;;20.10;8.73;;;23.60;47.00;;;;;;6056128;28;81488;-70
2022/12/10 11:33:54;;;;;;;16.40;8.50;;;23.50;46.30;;;;;;6055208;28;80834;-74
2022/12/10 11:36:55;;;;;;;13.90;7.85;;;23.50;46.70;;;;;;6051683;28;82336;-69
2022/12/10 11:39:55;;;;;;;19.35;8.68;;;23.50;46.70;;;;;;6054236;28;84839;-69
2022/12/10 11:42:56;;;;;;;16.25;8.43;;;23.50;46.30;;;;;;6046804;28;80564;-66
2022/12/10 11:45:56;;;;;;;24.23;8.55;;;23.50;47.80;;;;;;6028754;28;81737;-67
2022/12/10 11:48:57;;;;;;;24.77;9.23;;;23.60;49.30;;;;;;6037661;28;81250;-64
2022/12/10 11:52:02;;;;;;;23.92;9.90;;;23.60;48.30;;;;;;6037868;28;81039;-65
2022/12/10 11:55:02;;;;;;;20.63;9.65;;;23.60;48.30;;;;;;6034576;28;84677;-67
2022/12/10 11:58:03;;;;;;;27.77;9.45;;;23.60;48.50;;;;;;6036282;28;82006;-69
2022/12/10 12:01:03;;;;;;;23.88;9.98;;;23.60;49.10;;;;;;6036657;28;83892;-66
2022/12/10 12:04:04;;;;;;;23.33;9.43;;;23.50;48.00;;;;;;6033915;28;83722;-63
2022/12/10 12:07:04;;;;;;;20.45;9.57;;;23.50;48.00;;;;;;6034392;28;83094;-65
2022/12/10 12:10:05;;;;;;;20.15;9.20;;;23.50;48.00;;;;;;6032670;28;80801;-65
2022/12/10 12:13:05;;;;;;;24.05;9.68;;;23.50;47.20;;;;;;6034129;28;80489;-70
2022/12/10 12:16:05;;;;;;;24.40;8.65;;;23.50;47.00;;;;;;6036332;28;81662;-63
2022/12/10 12:19:06;;;;;;;13.93;7.38;;;23.50;47.30;;;;;;6054184;28;80713;-61
2022/12/10 12:22:06;;;;;;;28.02;8.27;;;23.50;47.30;;;;;;6050194;28;82561;-69
2022/12/10 12:25:07;;;;;;;19.95;9.70;;;23.40;47.50;;;;;;6051394;28;80439;-65
2022/12/10 12:28:07;;;;;;;17.10;8.68;;;23.40;46.90;;;;;;6049977;28;80636;-63
2022/12/10 12:31:08;;;;;;;19.65;8.75;;;23.40;47.10;;;;;;6030766;28;83415;-64
2022/12/10 12:34:08;;;;;;;17.08;8.88;;;23.40;47.20;;;;;;6035926;28;81983;-62
2022/12/10 12:37:09;;;;;;;16.40;7.50;;;23.40;46.70;;;;;;6037682;28;83010;-62
2022/12/10 12:40:10;;;;;;;16.65;8.38;;;23.50;46.60;;;;;;6032839;28;85041;-65
2022/12/10 12:43:11;;;;;;;20.25;8.65;;;23.50;46.20;;;;;;6058865;28;80629;-65
2022/12/10 12:46:11;;;;;;;16.15;7.57;;;23.40;45.80;;;;;;6051829;28;80546;-66
2022/12/10 12:49:12;;;;;;;16.13;7.47;;;23.40;45.90;;;;;;6054576;28;80820;-61
2022/12/10 12:52:12;;;;;;;15.35;7.47;;;23.40;45.80;;;;;;6042566;28;81086;-67
2022/12/10 12:55:13;;;;;;;12.23;7.43;;;23.50;46.00;;;;;;6041098;28;87629;-67
2022/12/10 12:58:13;;;;;;;17.20;7.97;;;23.50;45.60;;;;;;6041635;28;80577;-62
2022/12/10 13:01:14;;;;;;;15.43;7.63;;;23.50;45.50;;;;;;6035806;28;81717;-62
2022/12/10 13:04:14;;;;;;;15.05;7.65;;;23.50;45.50;;;;;;6028559;28;80753;-65
2022/12/10 13:07:15;;;;;;;12.80;7.50;;;23.50;45.40;;;;;;6032085;28;80433;-63
2022/12/10 13:10:15;;;;;;;13.68;7.05;;;23.60;45.60;;;;;;6027584;28;85636;-62
2022/12/10 13:13:16;;;;;;;9.35;6.82;;;23.60;45.50;;;;;;6027289;28;80923;-64
2022/12/10 13:16:16;;;;;;;14.70;6.95;;;23.60;45.10;;;;;;6037785;28;81507;-65
2022/12/10 13:19:17;;;;;;;12.82;6.75;;;23.60;45.10;;;;;;6037269;28;80689;-65
2022/12/10 13:22:17;;;;;;;15.27;7.22;;;23.60;45.10;;;;;;6030931;28;80566;-63
2022/12/10 13:25:18;;;;;;;12.30;7.68;;;23.60;45.00;;;;;;6026118;28;82021;-60
2022/12/10 13:28:18;;;;;;;14.93;7.47;;;23.50;44.60;;;;;;6037462;28;80826;-63
2022/12/10 13:31:19;;;;;;;11.70;7.45;;;23.50;44.60;;;;;;6033327;28;80699;-65
2022/12/10 13:34:19;;;;;;;13.82;7.93;;;23.50;44.50;;;;;;6028239;28;80550;-69
2022/12/10 13:37:20;;;;;;;13.50;7.22;;;23.50;44.50;;;;;;6029516;28;87757;-73
2022/12/10 13:40:21;;;;;;;11.60;7.10;;;23.60;44.30;;;;;;6017964;28;83377;-72
2022/12/10 13:46:40;;;;;;;13.60;8.10;;;23.50;44.20;;;;;;6041413;28;82309;-71
2022/12/10 13:49:41;;;;;;;11.35;7.88;;;23.50;43.90;;;;;;6065123;28;80656;-70
2022/12/10 13:52:41;;;;;;;11.45;7.70;;;23.50;44.00;;;;;;6042271;28;80477;-77
2022/12/10 13:55:42;;;;;;;12.52;7.65;;;23.50;43.90;;;;;;6037356;28;80743;-73
2022/12/10 13:58:43;;;;;;;18.10;9.02;;;23.40;43.70;;;;;;6042430;28;80521;-75
2022/12/10 14:01:43;;;;;;;11.48;8.52;;;23.40;43.70;;;;;;6032149;28;84263;-68
2022/12/10 14:04:44;;;;;;;12.25;8.93;;;23.40;44.20;;;;;;6032720;28;82210;-72
2022/12/10 14:07:44;;;;;;;11.07;8.55;;;23.40;44.50;;;;;;6044891;28;82136;-63
2022/12/10 14:10:45;;;;;;;14.00;9.45;;;23.40;44.70;;;;;;6040304;28;80563;-73
2022/12/10 14:13:45;;;;;;;17.10;9.68;;;23.30;44.70;;;;;;6042831;28;80732;-75
2022/12/10 14:16:46;;;;;;;13.73;9.40;;;23.30;45.00;;;;;;6051214;28;81221;-70
2022/12/10 14:19:46;;;;;;;14.45;10.07;;;23.30;45.40;;;;;;6048099;28;80655;-63
2022/12/10 14:22:47;;;;;;;15.55;10.45;;;23.30;46.20;;;;;;6035771;28;87031;-70
2022/12/10 14:25:47;;;;;;;22.48;11.85;;;23.30;46.70;;;;;;6044271;28;82982;-76
2022/12/10 14:28:48;;;;;;;17.80;11.32;;;23.20;46.30;;;;;;6045050;28;83224;-76
2022/12/10 14:31:48;;;;;;;17.50;11.50;;;23.20;46.50;;;;;;6043041;28;83065;-73
2022/12/10 14:34:49;;;;;;;16.45;10.70;;;23.20;47.10;;;;;;6045783;28;83760;-73
2022/12/10 14:37:49;;;;;;;17.15;11.60;;;23.20;47.10;;;;;;6048636;28;83270;-78
2022/12/10 14:40:50;;;;;;;18.67;10.43;;;23.20;46.90;;;;;;6046785;28;84519;-79
2022/12/10 14:43:50;;;;;;;20.15;10.48;;;23.20;47.00;;;;;;6048524;28;85644;-65
2022/12/10 14:46:51;;;;;;;18.52;11.00;;;23.20;46.90;;;;;;6053028;28;83156;-65
2022/12/10 14:49:51;;;;;;;18.48;11.45;;;23.20;46.70;;;;;;6049539;28;83441;-66
2022/12/10 14:52:52;;;;;;;18.98;11.93;;;23.20;47.20;;;;;;6050065;28;83156;-69
2022/12/10 14:55:52;;;;;;;33.92;14.43;;;23.30;47.90;;;;;;6047110;28;83524;-64
2022/12/10 14:58:53;;;;;;;44.22;15.95;;;23.30;48.70;;;;;;6029157;28;83149;-62
2022/12/10 15:01:53;;;;;;;23.98;14.75;;;23.30;49.60;;;;;;6069983;28;84233;-69
2022/12/10 15:04:54;;;;;;;25.92;14.70;;;23.30;50.60;;;;;;6046411;28;83080;-68
2022/12/10 15:07:54;;;;;;;28.83;15.00;;;23.20;49.70;;;;;;6041260;28;84413;-67
2022/12/10 15:10:55;;;;;;;28.40;15.15;;;23.20;49.80;;;;;;6052159;28;85844;-68
2022/12/10 15:13:55;;;;;;;25.23;14.02;;;23.30;50.00;;;;;;6033715;28;83273;-68
2022/12/10 15:16:56;;;;;;;30.60;15.23;;;23.30;50.00;;;;;;6040695;28;83770;-67
2022/12/10 15:19:57;;;;;;;24.23;13.75;;;23.20;52.20;;;;;;6037417;28;83909;-68
2022/12/10 15:22:57;;;;;;;22.90;13.95;;;23.20;53.20;;;;;;6041433;28;83182;-68
2022/12/10 15:25:58;;;;;;;31.52;14.60;;;23.30;52.00;;;;;;6032288;28;83383;-62
2022/12/10 15:28:58;;;;;;;23.50;13.18;;;23.30;52.40;;;;;;6040438;28;83028;-60
2022/12/10 15:31:59;;;;;;;24.05;13.75;;;23.30;52.10;;;;;;6031661;28;83403;-65
2022/12/10 15:34:59;;;;;;;26.33;14.90;;;23.30;51.90;;;;;;6039914;28;83661;-64
2022/12/10 15:38:00;;;;;;;25.17;13.95;;;23.30;52.70;;;;;;6034621;28;87852;-64
2022/12/10 15:41:01;;;;;;;20.70;14.32;;;23.40;52.40;;;;;;6030686;28;83917;-62
2022/12/10 15:44:01;;;;;;;24.80;13.25;;;23.40;52.20;;;;;;6032449;28;83433;-63